sensor_id;sensor_type;location;lat;lon;timestamp;temperature;humidity
58951;DHT22;44730;53.158;6.398;2023-03-01T00:01:12;-1.60;99.90
58951;DHT22;44730;53.158;6.398;2023-03-01T00:03:39;-1.60;99.90
58951;DHT22;44730;53.158;6.398;2023-03-01T00:06:05;-1.60;99.90
58951;DHT22;44730;53.158;6.398;2023-03-01T00:08:32;-1.60;99.90
58951;DHT22;44730;53.158;6.398;2023-03-01T00:11:16;-1.60;99.90
58951;DHT22;44730;53.158;6.398;2023-03-01T00:13:43;-1.60;99.90
58951;DHT22;44730;53.158;6.398;2023-03-01T00:16:30;-0.70;99.90
58951;DHT22;44730;53.158;6.398;2023-03-01T00:18:59;-1.70;99.90
58951;DHT22;44730;53.158;6.398;2023-03-01T00:21:26;-1.70;99.90
58951;DHT22;44730;53.158;6.398;2023-03-01T00:23:52;-1.80;99.90
58951;DHT22;44730;53.158;6.398;2023-03-01T00:26:20;-0.70;99.90
58951;DHT22;44730;53.158;6.398;2023-03-01T00:28:46;-1.80;99.90
58951;DHT22;44730;53.158;6.398;2023-03-01T00:31:15;-1.20;99.90
58951;DHT22;44730;53.158;6.398;2023-03-01T00:33:42;-1.90;99.90
58951;DHT22;44730;53.158;6.398;2023-03-01T00:36:09;-1.90;99.90
58951;DHT22;44730;53.158;6.398;2023-03-01T00:38:40;-1.90;99.90
58951;DHT22;44730;53.158;6.398;2023-03-01T00:41:12;-1.90;99.90
58951;DHT22;44730;53.158;6.398;2023-03-01T00:43:38;-1.20;99.90
58951;DHT22;44730;53.158;6.398;2023-03-01T00:46:12;-1.60;99.90
58951;DHT22;44730;53.158;6.398;2023-03-01T00:48:44;-2.00;99.90
58951;DHT22;44730;53.158;6.398;2023-03-01T00:51:19;-2.00;99.90
58951;DHT22;44730;53.158;6.398;2023-03-01T00:53:45;-2.00;99.90
58951;DHT22;44730;53.158;6.398;2023-03-01T00:56:13;-0.70;99.90
58951;DHT22;44730;53.158;6.398;2023-03-01T00:58:39;-2.10;99.90
58951;DHT22;44730;53.158;6.398;2023-03-01T01:01:10;-2.10;99.90
58951;DHT22;44730;53.158;6.398;2023-03-01T01:03:54;-2.10;99.90
58951;DHT22;44730;53.158;6.398;2023-03-01T01:06:22;-2.10;99.90
58951;DHT22;44730;53.158;6.398;2023-03-01T01:08:49;-2.20;99.90
58951;DHT22;44730;53.158;6.398;2023-03-01T01:11:16;-2.10;99.90
58951;DHT22;44730;53.158;6.398;2023-03-01T01:13:44;-2.10;99.90
58951;DHT22;44730;53.158;6.398;2023-03-01T01:16:10;-2.10;99.90
58951;DHT22;44730;53.158;6.398;2023-03-01T01:18:36;-2.10;99.90
58951;DHT22;44730;53.158;6.398;2023-03-01T01:21:07;-2.10;99.90
58951;DHT22;44730;53.158;6.398;2023-03-01T01:23:34;-2.10;99.90
58951;DHT22;44730;53.158;6.398;2023-03-01T01:26:07;-1.30;99.90
58951;DHT22;44730;53.158;6.398;2023-03-01T01:28:33;-2.20;99.90
58951;DHT22;44730;53.158;6.398;2023-03-01T01:30:59;-2.20;99.90
58951;DHT22;44730;53.158;6.398;2023-03-01T01:33:25;-2.20;99.90
58951;DHT22;44730;53.158;6.398;2023-03-01T01:35:52;-2.20;99.90
58951;DHT22;44730;53.158;6.398;2023-03-01T01:38:18;-2.30;99.90
58951;DHT22;44730;53.158;6.398;2023-03-01T01:40:49;-2.30;99.90
58951;DHT22;44730;53.158;6.398;2023-03-01T01:43:28;-2.30;99.90
58951;DHT22;44730;53.158;6.398;2023-03-01T01:46:01;-2.30;99.90
58951;DHT22;44730;53.158;6.398;2023-03-01T01:48:41;-2.10;99.90
58951;DHT22;44730;53.158;6.398;2023-03-01T01:51:16;-2.30;99.90
58951;DHT22;44730;53.158;6.398;2023-03-01T01:53:45;-2.00;99.90
58951;DHT22;44730;53.158;6.398;2023-03-01T01:56:13;-2.30;99.90
58951;DHT22;44730;53.158;6.398;2023-03-01T01:58:42;-2.30;99.90
58951;DHT22;44730;53.158;6.398;2023-03-01T02:01:10;-2.30;99.90
58951;DHT22;44730;53.158;6.398;2023-03-01T02:03:38;-1.40;99.90
58951;DHT22;44730;53.158;6.398;2023-03-01T02:06:17;-2.30;99.90
58951;DHT22;44730;53.158;6.398;2023-03-01T02:08:46;-2.30;99.90
58951;DHT22;44730;53.158;6.398;2023-03-01T02:11:13;-2.20;99.90
58951;DHT22;44730;53.158;6.398;2023-03-01T02:13:42;-2.20;99.90
58951;DHT22;44730;53.158;6.398;2023-03-01T02:16:10;-2.20;99.90
58951;DHT22;44730;53.158;6.398;2023-03-01T02:18:37;-2.20;99.90
58951;DHT22;44730;53.158;6.398;2023-03-01T02:24:13;-2.20;99.90
58951;DHT22;44730;53.158;6.398;2023-03-01T02:26:48;-2.20;99.90
58951;DHT22;44730;53.158;6.398;2023-03-01T02:29:15;-2.20;99.90
58951;DHT22;44730;53.158;6.398;2023-03-01T02:31:41;-2.30;99.90
58951;DHT22;44730;53.158;6.398;2023-03-01T02:34:10;-2.30;99.90
58951;DHT22;44730;53.158;6.398;2023-03-01T02:36:49;-2.30;99.90
58951;DHT22;44730;53.158;6.398;2023-03-01T02:39:22;-2.40;99.90
58951;DHT22;44730;53.158;6.398;2023-03-01T02:41:54;-2.40;99.90
58951;DHT22;44730;53.158;6.398;2023-03-01T02:44:22;-2.50;99.90
58951;DHT22;44730;53.158;6.398;2023-03-01T02:46:51;-2.50;99.90
58951;DHT22;44730;53.158;6.398;2023-03-01T02:49:37;-2.50;99.90
58951;DHT22;44730;53.158;6.398;2023-03-01T02:52:30;-2.50;99.90
58951;DHT22;44730;53.158;6.398;2023-03-01T02:55:13;-2.40;99.90
58951;DHT22;44730;53.158;6.398;2023-03-01T02:57:43;-2.50;99.90
58951;DHT22;44730;53.158;6.398;2023-03-01T03:00:12;-1.30;99.90
58951;DHT22;44730;53.158;6.398;2023-03-01T03:02:46;-2.50;99.90
58951;DHT22;44730;53.158;6.398;2023-03-01T03:05:15;-2.50;99.90
58951;DHT22;44730;53.158;6.398;2023-03-01T03:07:43;-2.50;99.90
58951;DHT22;44730;53.158;6.398;2023-03-01T03:10:13;-2.60;99.90
58951;DHT22;44730;53.158;6.398;2023-03-01T03:12:40;-2.50;99.90
58951;DHT22;44730;53.158;6.398;2023-03-01T03:15:09;-2.30;99.90
58951;DHT22;44730;53.158;6.398;2023-03-01T03:17:36;-2.60;99.90
58951;DHT22;44730;53.158;6.398;2023-03-01T03:20:04;-1.30;99.90
58951;DHT22;44730;53.158;6.398;2023-03-01T03:22:31;-2.50;99.90
58951;DHT22;44730;53.158;6.398;2023-03-01T03:24:56;-2.60;99.90
58951;DHT22;44730;53.158;6.398;2023-03-01T03:27:22;-2.60;99.90
58951;DHT22;44730;53.158;6.398;2023-03-01T03:29:48;-2.60;99.90
58951;DHT22;44730;53.158;6.398;2023-03-01T03:32:13;-2.70;99.90
58951;DHT22;44730;53.158;6.398;2023-03-01T03:34:41;-2.70;99.90
58951;DHT22;44730;53.158;6.398;2023-03-01T03:37:07;-2.70;99.90
58951;DHT22;44730;53.158;6.398;2023-03-01T03:39:53;-2.80;99.90
58951;DHT22;44730;53.158;6.398;2023-03-01T03:42:21;-2.80;99.90
58951;DHT22;44730;53.158;6.398;2023-03-01T03:44:48;-2.80;99.90
58951;DHT22;44730;53.158;6.398;2023-03-01T03:47:14;-2.90;99.90
58951;DHT22;44730;53.158;6.398;2023-03-01T03:49:40;-2.90;99.90
58951;DHT22;44730;53.158;6.398;2023-03-01T03:52:05;-2.90;99.90
58951;DHT22;44730;53.158;6.398;2023-03-01T03:54:40;-2.90;99.90
58951;DHT22;44730;53.158;6.398;2023-03-01T03:57:06;-3.00;99.90
58951;DHT22;44730;53.158;6.398;2023-03-01T03:59:32;-3.00;99.90
58951;DHT22;44730;53.158;6.398;2023-03-01T04:01:58;-2.90;99.90
58951;DHT22;44730;53.158;6.398;2023-03-01T04:04:24;-3.00;99.90
58951;DHT22;44730;53.158;6.398;2023-03-01T04:06:50;-3.00;99.90
58951;DHT22;44730;53.158;6.398;2023-03-01T04:09:15;-3.00;99.90
58951;DHT22;44730;53.158;6.398;2023-03-01T04:11:41;-3.00;99.90
58951;DHT22;44730;53.158;6.398;2023-03-01T04:14:07;-3.00;99.90
58951;DHT22;44730;53.158;6.398;2023-03-01T04:16:32;-3.00;99.90
58951;DHT22;44730;53.158;6.398;2023-03-01T04:19:04;-3.00;99.90
58951;DHT22;44730;53.158;6.398;2023-03-01T04:21:31;-3.00;99.90
58951;DHT22;44730;53.158;6.398;2023-03-01T04:23:57;-3.00;99.90
58951;DHT22;44730;53.158;6.398;2023-03-01T04:26:23;-3.00;99.90
58951;DHT22;44730;53.158;6.398;2023-03-01T04:28:48;-2.90;99.90
58951;DHT22;44730;53.158;6.398;2023-03-01T04:31:17;-3.00;99.90
58951;DHT22;44730;53.158;6.398;2023-03-01T04:33:54;-3.00;99.90
58951;DHT22;44730;53.158;6.398;2023-03-01T04:36:24;-2.90;99.90
58951;DHT22;44730;53.158;6.398;2023-03-01T04:38:50;-2.90;99.90
58951;DHT22;44730;53.158;6.398;2023-03-01T04:41:19;-3.00;99.90
58951;DHT22;44730;53.158;6.398;2023-03-01T04:43:46;-3.00;99.90
58951;DHT22;44730;53.158;6.398;2023-03-01T04:46:14;-3.00;99.90
58951;DHT22;44730;53.158;6.398;2023-03-01T04:48:43;-3.10;99.90
58951;DHT22;44730;53.158;6.398;2023-03-01T04:51:09;-3.10;99.90
58951;DHT22;44730;53.158;6.398;2023-03-01T04:53:35;-3.10;99.90
58951;DHT22;44730;53.158;6.398;2023-03-01T04:56:04;-3.20;99.90
58951;DHT22;44730;53.158;6.398;2023-03-01T04:58:31;-3.20;99.90
58951;DHT22;44730;53.158;6.398;2023-03-01T05:00:57;-3.30;99.90
58951;DHT22;44730;53.158;6.398;2023-03-01T05:03:23;-3.30;99.90
58951;DHT22;44730;53.158;6.398;2023-03-01T05:05:50;-3.40;99.90
58951;DHT22;44730;53.158;6.398;2023-03-01T05:08:17;-3.40;99.90
58951;DHT22;44730;53.158;6.398;2023-03-01T05:10:51;-3.40;99.90
58951;DHT22;44730;53.158;6.398;2023-03-01T05:13:19;-3.40;99.90
58951;DHT22;44730;53.158;6.398;2023-03-01T05:15:58;-3.50;99.90
58951;DHT22;44730;53.158;6.398;2023-03-01T05:18:26;-3.50;99.90
58951;DHT22;44730;53.158;6.398;2023-03-01T05:20:56;-3.50;99.90
58951;DHT22;44730;53.158;6.398;2023-03-01T05:23:24;-3.50;99.90
58951;DHT22;44730;53.158;6.398;2023-03-01T05:25:50;-3.50;99.90
58951;DHT22;44730;53.158;6.398;2023-03-01T05:28:19;-2.80;99.90
58951;DHT22;44730;53.158;6.398;2023-03-01T05:30:45;-3.60;99.90
58951;DHT22;44730;53.158;6.398;2023-03-01T05:33:11;-3.60;99.90
58951;DHT22;44730;53.158;6.398;2023-03-01T05:35:42;-3.70;99.90
58951;DHT22;44730;53.158;6.398;2023-03-01T05:38:09;-3.00;99.90
58951;DHT22;44730;53.158;6.398;2023-03-01T05:40:39;-3.80;99.90
58951;DHT22;44730;53.158;6.398;2023-03-01T05:43:11;-3.80;99.90
58951;DHT22;44730;53.158;6.398;2023-03-01T05:45:38;-3.80;99.90
58951;DHT22;44730;53.158;6.398;2023-03-01T05:48:05;-3.70;99.90
58951;DHT22;44730;53.158;6.398;2023-03-01T05:50:38;-3.80;99.90
58951;DHT22;44730;53.158;6.398;2023-03-01T05:53:16;-3.80;99.90
58951;DHT22;44730;53.158;6.398;2023-03-01T05:55:43;-3.80;99.90
58951;DHT22;44730;53.158;6.398;2023-03-01T05:58:12;-3.80;99.90
58951;DHT22;44730;53.158;6.398;2023-03-01T06:00:39;-3.80;99.90
58951;DHT22;44730;53.158;6.398;2023-03-01T06:03:10;-3.80;99.90
58951;DHT22;44730;53.158;6.398;2023-03-01T06:05:36;-3.80;99.90
58951;DHT22;44730;53.158;6.398;2023-03-01T06:08:05;-3.90;99.90
58951;DHT22;44730;53.158;6.398;2023-03-01T06:10:30;-3.20;99.90
58951;DHT22;44730;53.158;6.398;2023-03-01T06:12:58;-3.00;99.90
58951;DHT22;44730;53.158;6.398;2023-03-01T06:15:24;-4.00;99.90
58951;DHT22;44730;53.158;6.398;2023-03-01T06:17:54;-4.10;99.90
58951;DHT22;44730;53.158;6.398;2023-03-01T06:20:24;-4.10;99.90
58951;DHT22;44730;53.158;6.398;2023-03-01T06:22:50;-4.00;99.90
58951;DHT22;44730;53.158;6.398;2023-03-01T06:25:21;-4.00;99.90
58951;DHT22;44730;53.158;6.398;2023-03-01T06:27:47;-4.00;99.90
58951;DHT22;44730;53.158;6.398;2023-03-01T06:30:16;-4.10;99.90
58951;DHT22;44730;53.158;6.398;2023-03-01T06:32:43;-4.00;99.90
58951;DHT22;44730;53.158;6.398;2023-03-01T06:35:11;-4.10;99.90
58951;DHT22;44730;53.158;6.398;2023-03-01T06:37:38;-4.10;99.90
58951;DHT22;44730;53.158;6.398;2023-03-01T06:40:05;-4.00;99.90
58951;DHT22;44730;53.158;6.398;2023-03-01T06:42:38;-4.10;99.90
58951;DHT22;44730;53.158;6.398;2023-03-01T06:45:05;-4.00;99.90
58951;DHT22;44730;53.158;6.398;2023-03-01T06:47:32;-4.00;99.90
58951;DHT22;44730;53.158;6.398;2023-03-01T06:50:01;-3.20;99.90
58951;DHT22;44730;53.158;6.398;2023-03-01T06:52:28;-3.90;99.90
58951;DHT22;44730;53.158;6.398;2023-03-01T06:54:53;-2.90;99.90
58951;DHT22;44730;53.158;6.398;2023-03-01T06:57:20;-3.80;99.90
58951;DHT22;44730;53.158;6.398;2023-03-01T06:59:47;-3.80;99.90
58951;DHT22;44730;53.158;6.398;2023-03-01T07:02:19;-3.80;99.90
58951;DHT22;44730;53.158;6.398;2023-03-01T07:04:49;-3.70;99.90
58951;DHT22;44730;53.158;6.398;2023-03-01T07:07:15;-3.60;99.90
58951;DHT22;44730;53.158;6.398;2023-03-01T07:09:41;-3.50;99.90
58951;DHT22;44730;53.158;6.398;2023-03-01T07:12:07;-3.40;99.90
58951;DHT22;44730;53.158;6.398;2023-03-01T07:14:34;-3.20;99.90
58951;DHT22;44730;53.158;6.398;2023-03-01T07:16:59;-3.00;99.90
58951;DHT22;44730;53.158;6.398;2023-03-01T07:19:25;-2.80;99.90
58951;DHT22;44730;53.158;6.398;2023-03-01T07:21:51;-2.70;99.90
58951;DHT22;44730;53.158;6.398;2023-03-01T07:24:18;-2.60;99.90
58951;DHT22;44730;53.158;6.398;2023-03-01T07:26:44;-2.30;99.90
58951;DHT22;44730;53.158;6.398;2023-03-01T07:29:10;-0.30;99.90
58951;DHT22;44730;53.158;6.398;2023-03-01T07:31:37;-1.40;99.90
58951;DHT22;44730;53.158;6.398;2023-03-01T07:34:03;-1.10;99.90
58951;DHT22;44730;53.158;6.398;2023-03-01T07:36:29;-0.50;99.90
58951;DHT22;44730;53.158;6.398;2023-03-01T07:38:55;0.00;99.90
58951;DHT22;44730;53.158;6.398;2023-03-01T07:41:21;0.40;99.90
58951;DHT22;44730;53.158;6.398;2023-03-01T07:43:47;0.70;99.90
58951;DHT22;44730;53.158;6.398;2023-03-01T07:46:12;0.80;99.90
58951;DHT22;44730;53.158;6.398;2023-03-01T07:48:38;0.90;99.90
58951;DHT22;44730;53.158;6.398;2023-03-01T07:51:05;0.70;99.90
58951;DHT22;44730;53.158;6.398;2023-03-01T07:53:32;0.50;99.90
58951;DHT22;44730;53.158;6.398;2023-03-01T07:56:10;0.20;99.90
58951;DHT22;44730;53.158;6.398;2023-03-01T07:58:38;0.80;99.90
58951;DHT22;44730;53.158;6.398;2023-03-01T08:01:06;0.10;99.90
58951;DHT22;44730;53.158;6.398;2023-03-01T08:03:32;0.10;99.90
58951;DHT22;44730;53.158;6.398;2023-03-01T08:06:02;0.40;99.90
58951;DHT22;44730;53.158;6.398;2023-03-01T08:08:28;1.10;99.90
58951;DHT22;44730;53.158;6.398;2023-03-01T08:11:05;1.20;99.90
58951;DHT22;44730;53.158;6.398;2023-03-01T08:13:32;2.00;99.90
58951;DHT22;44730;53.158;6.398;2023-03-01T08:16:04;3.30;99.90
58951;DHT22;44730;53.158;6.398;2023-03-01T08:18:30;3.50;99.90
58951;DHT22;44730;53.158;6.398;2023-03-01T08:21:04;4.10;99.90
58951;DHT22;44730;53.158;6.398;2023-03-01T08:23:30;4.70;99.90
58951;DHT22;44730;53.158;6.398;2023-03-01T08:26:12;5.10;99.90
58951;DHT22;44730;53.158;6.398;2023-03-01T08:28:39;5.20;99.90
58951;DHT22;44730;53.158;6.398;2023-03-01T08:31:23;5.20;99.90
58951;DHT22;44730;53.158;6.398;2023-03-01T08:33:52;5.40;99.90
58951;DHT22;44730;53.158;6.398;2023-03-01T08:36:29;5.70;99.90
58951;DHT22;44730;53.158;6.398;2023-03-01T08:38:55;5.90;99.90
58951;DHT22;44730;53.158;6.398;2023-03-01T08:41:21;6.00;99.90
58951;DHT22;44730;53.158;6.398;2023-03-01T08:43:46;6.20;99.90
58951;DHT22;44730;53.158;6.398;2023-03-01T08:46:14;6.50;99.90
58951;DHT22;44730;53.158;6.398;2023-03-01T08:48:40;7.00;99.90
58951;DHT22;44730;53.158;6.398;2023-03-01T08:51:16;7.50;99.90
58951;DHT22;44730;53.158;6.398;2023-03-01T08:53:44;7.90;99.90
58951;DHT22;44730;53.158;6.398;2023-03-01T08:56:10;8.40;99.90
58951;DHT22;44730;53.158;6.398;2023-03-01T08:58:36;8.70;99.90
58951;DHT22;44730;53.158;6.398;2023-03-01T09:01:10;8.80;99.90
58951;DHT22;44730;53.158;6.398;2023-03-01T09:03:36;9.20;99.90
58951;DHT22;44730;53.158;6.398;2023-03-01T09:06:03;9.50;99.90
58951;DHT22;44730;53.158;6.398;2023-03-01T09:08:30;9.60;99.90
58951;DHT22;44730;53.158;6.398;2023-03-01T09:10:55;9.90;99.90
58951;DHT22;44730;53.158;6.398;2023-03-01T09:13:22;10.00;99.90
58951;DHT22;44730;53.158;6.398;2023-03-01T09:15:50;10.30;99.90
58951;DHT22;44730;53.158;6.398;2023-03-01T09:18:18;10.60;99.90
58951;DHT22;44730;53.158;6.398;2023-03-01T09:20:43;10.90;99.90
58951;DHT22;44730;53.158;6.398;2023-03-01T09:23:10;11.20;99.90
58951;DHT22;44730;53.158;6.398;2023-03-01T09:25:36;11.50;99.90
58951;DHT22;44730;53.158;6.398;2023-03-01T09:28:04;11.40;99.90
58951;DHT22;44730;53.158;6.398;2023-03-01T09:30:29;11.80;99.90
58951;DHT22;44730;53.158;6.398;2023-03-01T09:32:56;12.20;99.90
58951;DHT22;44730;53.158;6.398;2023-03-01T09:35:22;12.60;99.90
58951;DHT22;44730;53.158;6.398;2023-03-01T09:37:49;12.70;99.90
58951;DHT22;44730;53.158;6.398;2023-03-01T09:40:24;12.80;99.90
58951;DHT22;44730;53.158;6.398;2023-03-01T09:43:23;13.10;99.90
58951;DHT22;44730;53.158;6.398;2023-03-01T09:45:53;13.10;99.90
58951;DHT22;44730;53.158;6.398;2023-03-01T09:48:23;13.20;99.90
58951;DHT22;44730;53.158;6.398;2023-03-01T09:50:53;13.30;99.90
58951;DHT22;44730;53.158;6.398;2023-03-01T09:53:22;13.40;99.90
58951;DHT22;44730;53.158;6.398;2023-03-01T09:56:02;13.60;99.90
58951;DHT22;44730;53.158;6.398;2023-03-01T10:02:11;14.20;98.60
58951;DHT22;44730;53.158;6.398;2023-03-01T10:04:47;13.80;98.20
58951;DHT22;44730;53.158;6.398;2023-03-01T10:07:37;14.10;97.40
58951;DHT22;44730;53.158;6.398;2023-03-01T10:10:07;14.20;97.20
58951;DHT22;44730;53.158;6.398;2023-03-01T10:12:39;14.40;98.20
58951;DHT22;44730;53.158;6.398;2023-03-01T10:15:15;14.40;97.00
58951;DHT22;44730;53.158;6.398;2023-03-01T10:17:57;14.40;96.50
58951;DHT22;44730;53.158;6.398;2023-03-01T10:20:42;14.70;95.00
58951;DHT22;44730;53.158;6.398;2023-03-01T10:23:09;14.50;95.80
58951;DHT22;44730;53.158;6.398;2023-03-01T10:25:47;14.50;96.40
58951;DHT22;44730;53.158;6.398;2023-03-01T10:28:17;14.90;95.60
58951;DHT22;44730;53.158;6.398;2023-03-01T10:30:45;15.10;95.70
58951;DHT22;44730;53.158;6.398;2023-03-01T10:33:16;15.00;95.40
58951;DHT22;44730;53.158;6.398;2023-03-01T10:35:43;14.40;94.70
58951;DHT22;44730;53.158;6.398;2023-03-01T10:38:11;13.40;95.60
58951;DHT22;44730;53.158;6.398;2023-03-01T10:46:33;10.20;98.00
58951;DHT22;44730;53.158;6.398;2023-03-01T10:49:19;9.50;99.50
58951;DHT22;44730;53.158;6.398;2023-03-01T10:51:49;9.00;99.90
58951;DHT22;44730;53.158;6.398;2023-03-01T10:54:28;8.70;99.90
58951;DHT22;44730;53.158;6.398;2023-03-01T10:56:58;8.30;99.90
58951;DHT22;44730;53.158;6.398;2023-03-01T11:08:01;7.60;99.90
58951;DHT22;44730;53.158;6.398;2023-03-01T11:10:33;7.60;99.90
58951;DHT22;44730;53.158;6.398;2023-03-01T11:13:26;7.50;99.90
58951;DHT22;44730;53.158;6.398;2023-03-01T11:16:03;7.50;99.90
58951;DHT22;44730;53.158;6.398;2023-03-01T11:18:31;7.40;99.90
58951;DHT22;44730;53.158;6.398;2023-03-01T11:20:58;7.40;99.90
58951;DHT22;44730;53.158;6.398;2023-03-01T11:23:28;7.40;99.90
58951;DHT22;44730;53.158;6.398;2023-03-01T11:26:07;7.40;99.90
58951;DHT22;44730;53.158;6.398;2023-03-01T11:28:35;7.40;99.90
58951;DHT22;44730;53.158;6.398;2023-03-01T11:31:11;7.40;99.90
58951;DHT22;44730;53.158;6.398;2023-03-01T11:33:55;7.30;99.90
58951;DHT22;44730;53.158;6.398;2023-03-01T11:36:46;7.40;99.90
58951;DHT22;44730;53.158;6.398;2023-03-01T11:42:00;7.20;99.90
58951;DHT22;44730;53.158;6.398;2023-03-01T11:44:29;7.20;99.90
58951;DHT22;44730;53.158;6.398;2023-03-01T12:01:09;7.40;99.90
58951;DHT22;44730;53.158;6.398;2023-03-01T12:18:03;9.20;99.90
58951;DHT22;44730;53.158;6.398;2023-03-01T12:21:07;10.40;99.90
58951;DHT22;44730;53.158;6.398;2023-03-01T12:23:41;11.60;99.10
58951;DHT22;44730;53.158;6.398;2023-03-01T12:26:36;12.40;98.50
58951;DHT22;44730;53.158;6.398;2023-03-01T12:35:51;14.20;93.40
58951;DHT22;44730;53.158;6.398;2023-03-01T12:38:45;14.50;91.90
58951;DHT22;44730;53.158;6.398;2023-03-01T12:49:17;15.20;90.70
58951;DHT22;44730;53.158;6.398;2023-03-01T12:51:56;15.80;91.00
58951;DHT22;44730;53.158;6.398;2023-03-01T12:54:33;15.40;87.50
58951;DHT22;44730;53.158;6.398;2023-03-01T12:57:12;15.60;88.60
58951;DHT22;44730;53.158;6.398;2023-03-01T13:02:56;15.00;89.30
58951;DHT22;44730;53.158;6.398;2023-03-01T13:05:51;15.30;87.90
58951;DHT22;44730;53.158;6.398;2023-03-01T13:08:43;15.50;88.60
58951;DHT22;44730;53.158;6.398;2023-03-01T13:11:19;14.90;87.80
58951;DHT22;44730;53.158;6.398;2023-03-01T13:13:46;15.00;87.70
58951;DHT22;44730;53.158;6.398;2023-03-01T13:19:16;15.10;88.20
58951;DHT22;44730;53.158;6.398;2023-03-01T13:21:44;15.40;86.10
58951;DHT22;44730;53.158;6.398;2023-03-01T13:32:25;15.40;85.00
58951;DHT22;44730;53.158;6.398;2023-03-01T13:37:42;15.40;84.80
58951;DHT22;44730;53.158;6.398;2023-03-01T13:42:48;15.20;85.20
58951;DHT22;44730;53.158;6.398;2023-03-01T13:45:24;15.50;84.80
58951;DHT22;44730;53.158;6.398;2023-03-01T13:48:24;15.80;84.80
58951;DHT22;44730;53.158;6.398;2023-03-01T13:50:54;15.40;82.00
58951;DHT22;44730;53.158;6.398;2023-03-01T13:53:27;15.00;84.10
58951;DHT22;44730;53.158;6.398;2023-03-01T13:56:23;15.20;83.40
58951;DHT22;44730;53.158;6.398;2023-03-01T13:58:50;15.00;82.40
58951;DHT22;44730;53.158;6.398;2023-03-01T14:01:29;15.10;82.80
58951;DHT22;44730;53.158;6.398;2023-03-01T14:03:56;15.10;83.60
58951;DHT22;44730;53.158;6.398;2023-03-01T14:06:25;15.00;85.40
58951;DHT22;44730;53.158;6.398;2023-03-01T14:14:30;13.40;88.40
58951;DHT22;44730;53.158;6.398;2023-03-01T14:19:27;11.80;88.60
58951;DHT22;44730;53.158;6.398;2023-03-01T14:22:34;11.40;91.70
58951;DHT22;44730;53.158;6.398;2023-03-01T14:25:06;10.50;91.70
58951;DHT22;44730;53.158;6.398;2023-03-01T14:27:41;10.30;93.50
58951;DHT22;44730;53.158;6.398;2023-03-01T14:30:27;9.90;93.50
58951;DHT22;44730;53.158;6.398;2023-03-01T14:32:58;9.60;93.50
58951;DHT22;44730;53.158;6.398;2023-03-01T14:35:30;9.40;94.80
58951;DHT22;44730;53.158;6.398;2023-03-01T14:37:56;9.20;94.70
58951;DHT22;44730;53.158;6.398;2023-03-01T14:40:28;9.10;95.20
58951;DHT22;44730;53.158;6.398;2023-03-01T14:42:58;8.90;95.70
58951;DHT22;44730;53.158;6.398;2023-03-01T14:45:27;8.80;96.20
58951;DHT22;44730;53.158;6.398;2023-03-01T14:47:55;8.70;96.70
58951;DHT22;44730;53.158;6.398;2023-03-01T14:50:32;8.70;97.30
58951;DHT22;44730;53.158;6.398;2023-03-01T14:53:00;8.70;97.70
58951;DHT22;44730;53.158;6.398;2023-03-01T14:55:33;8.50;97.60
58951;DHT22;44730;53.158;6.398;2023-03-01T14:58:06;8.30;98.20
58951;DHT22;44730;53.158;6.398;2023-03-01T15:00:33;8.30;99.10
58951;DHT22;44730;53.158;6.398;2023-03-01T15:03:14;8.10;99.30
58951;DHT22;44730;53.158;6.398;2023-03-01T15:05:44;8.00;99.90
58951;DHT22;44730;53.158;6.398;2023-03-01T15:08:19;7.90;99.90
58951;DHT22;44730;53.158;6.398;2023-03-01T15:10:58;7.90;99.90
58951;DHT22;44730;53.158;6.398;2023-03-01T15:13:26;7.80;99.90
58951;DHT22;44730;53.158;6.398;2023-03-01T15:16:00;7.70;99.90
58951;DHT22;44730;53.158;6.398;2023-03-01T15:18:28;7.80;99.90
58951;DHT22;44730;53.158;6.398;2023-03-01T15:20:56;7.70;99.90
58951;DHT22;44730;53.158;6.398;2023-03-01T15:23:30;7.70;99.90
58951;DHT22;44730;53.158;6.398;2023-03-01T15:25:57;7.70;99.90
58951;DHT22;44730;53.158;6.398;2023-03-01T15:28:28;7.60;99.90
58951;DHT22;44730;53.158;6.398;2023-03-01T15:33:32;7.60;99.90
58951;DHT22;44730;53.158;6.398;2023-03-01T15:36:01;7.50;99.90
58951;DHT22;44730;53.158;6.398;2023-03-01T15:38:51;7.50;99.90
58951;DHT22;44730;53.158;6.398;2023-03-01T15:41:27;7.40;99.90
58951;DHT22;44730;53.158;6.398;2023-03-01T15:43:54;7.30;99.90
58951;DHT22;44730;53.158;6.398;2023-03-01T15:46:24;7.30;99.90
58951;DHT22;44730;53.158;6.398;2023-03-01T15:49:41;7.30;99.90
58951;DHT22;44730;53.158;6.398;2023-03-01T15:52:08;7.20;99.90
58951;DHT22;44730;53.158;6.398;2023-03-01T15:54:38;7.20;99.90
58951;DHT22;44730;53.158;6.398;2023-03-01T15:57:11;7.10;99.90
58951;DHT22;44730;53.158;6.398;2023-03-01T15:59:37;7.10;99.90
58951;DHT22;44730;53.158;6.398;2023-03-01T16:02:09;7.00;99.90
58951;DHT22;44730;53.158;6.398;2023-03-01T16:04:37;7.00;99.90
58951;DHT22;44730;53.158;6.398;2023-03-01T16:07:02;6.90;99.90
58951;DHT22;44730;53.158;6.398;2023-03-01T16:09:29;6.90;99.90
58951;DHT22;44730;53.158;6.398;2023-03-01T16:11:55;6.80;99.90
58951;DHT22;44730;53.158;6.398;2023-03-01T16:14:21;6.80;99.90
58951;DHT22;44730;53.158;6.398;2023-03-01T16:16:47;6.80;99.90
58951;DHT22;44730;53.158;6.398;2023-03-01T16:19:14;6.70;99.90
58951;DHT22;44730;53.158;6.398;2023-03-01T16:21:40;6.70;99.90
58951;DHT22;44730;53.158;6.398;2023-03-01T16:24:08;6.60;99.90
58951;DHT22;44730;53.158;6.398;2023-03-01T16:26:35;6.60;99.90
58951;DHT22;44730;53.158;6.398;2023-03-01T16:29:01;6.50;99.90
58951;DHT22;44730;53.158;6.398;2023-03-01T16:31:27;6.50;99.90
58951;DHT22;44730;53.158;6.398;2023-03-01T16:33:56;6.40;99.90
58951;DHT22;44730;53.158;6.398;2023-03-01T16:36:25;6.40;99.90
58951;DHT22;44730;53.158;6.398;2023-03-01T16:38:54;6.40;99.90
58951;DHT22;44730;53.158;6.398;2023-03-01T16:41:22;6.20;99.90
58951;DHT22;44730;53.158;6.398;2023-03-01T16:43:49;6.10;99.90
58951;DHT22;44730;53.158;6.398;2023-03-01T16:46:19;6.00;99.90
58951;DHT22;44730;53.158;6.398;2023-03-01T16:48:46;5.90;99.90
58951;DHT22;44730;53.158;6.398;2023-03-01T16:51:17;5.80;99.90
58951;DHT22;44730;53.158;6.398;2023-03-01T16:53:43;5.70;99.90
58951;DHT22;44730;53.158;6.398;2023-03-01T16:56:16;5.60;99.90
58951;DHT22;44730;53.158;6.398;2023-03-01T16:58:42;5.50;99.90
58951;DHT22;44730;53.158;6.398;2023-03-01T17:01:19;5.50;99.90
58951;DHT22;44730;53.158;6.398;2023-03-01T17:03:46;5.40;99.90
58951;DHT22;44730;53.158;6.398;2023-03-01T17:06:15;5.60;99.90
58951;DHT22;44730;53.158;6.398;2023-03-01T17:08:41;5.20;99.90
58951;DHT22;44730;53.158;6.398;2023-03-01T17:11:10;5.00;99.90
58951;DHT22;44730;53.158;6.398;2023-03-01T17:13:37;5.00;99.90
58951;DHT22;44730;53.158;6.398;2023-03-01T17:16:05;4.90;99.90
58951;DHT22;44730;53.158;6.398;2023-03-01T17:18:31;4.80;99.90
58951;DHT22;44730;53.158;6.398;2023-03-01T17:20:59;4.70;99.90
58951;DHT22;44730;53.158;6.398;2023-03-01T17:23:26;4.60;99.90
58951;DHT22;44730;53.158;6.398;2023-03-01T17:25:53;4.50;99.90
58951;DHT22;44730;53.158;6.398;2023-03-01T17:28:21;4.40;99.90
58951;DHT22;44730;53.158;6.398;2023-03-01T17:30:48;4.30;99.90
58951;DHT22;44730;53.158;6.398;2023-03-01T17:33:15;4.30;99.90